Time;durP1;ratioP1;P1;durP2;ratioP2;P2;SDS_P1;SDS_P2;PMS_P1;PMS_P2;Temp;Humidity;BMP_temperature;BMP_pressure;BME280_temperature;BME280_humidity;BME280_pressure;Samples;Min_cycle;Max_cycle;Signal;HPM_P1;HPM_P2
2023/02/17 00:01:59;;;;;;;2.88;1.60;;;11.00;99.90;;;;;;6213900;23;19996;-87
2023/02/17 00:04:28;;;;;;;3.20;1.73;;;11.00;99.90;;;;;;6214036;23;20008;-87
2023/02/17 00:06:56;;;;;;;3.75;1.85;;;11.00;99.90;;;;;;6214315;23;20005;-86
2023/02/17 00:09:22;;;;;;;2.15;1.60;;;11.00;99.90;;;;;;6213874;23;20013;-87
2023/02/17 00:11:49;;;;;;;5.38;2.05;;;11.10;99.90;;;;;;6213683;23;20004;-87
2023/02/17 00:14:15;;;;;;;3.80;2.00;;;11.10;99.90;;;;;;6213651;23;20023;-85
2023/02/17 00:16:41;;;;;;;3.05;1.90;;;11.10;99.90;;;;;;6214129;23;20001;-87
2023/02/17 00:19:22;;;;;;;3.15;2.20;;;11.20;99.90;;;;;;6213814;23;20016;-85
2023/02/17 00:21:49;;;;;;;2.30;1.60;;;11.20;99.90;;;;;;6213977;23;20032;-85
2023/02/17 00:24:15;;;;;;;3.47;2.17;;;11.20;99.90;;;;;;6213740;23;20318;-88
2023/02/17 00:26:40;;;;;;;3.15;2.30;;;11.20;99.90;;;;;;6213921;23;20008;-87
2023/02/17 00:29:06;;;;;;;4.47;2.40;;;11.20;99.90;;;;;;6213403;23;20472;-87
2023/02/17 00:31:32;;;;;;;5.00;2.28;;;11.20;99.90;;;;;;6213809;23;20005;-88
2023/02/17 00:33:57;;;;;;;3.65;1.88;;;11.20;99.90;;;;;;6213874;23;20004;-87
2023/02/17 00:36:24;;;;;;;3.30;2.17;;;11.20;99.90;;;;;;6213705;23;20403;-87
2023/02/17 00:38:51;;;;;;;3.85;2.10;;;11.20;99.90;;;;;;6213633;23;20103;-87
2023/02/17 00:41:18;;;;;;;2.95;2.40;;;11.20;99.90;;;;;;6213729;23;20001;-88
2023/02/17 00:43:44;;;;;;;4.07;2.85;;;11.10;99.90;;;;;;6215568;23;20008;-85
2023/02/17 00:46:10;;;;;;;3.08;2.47;;;11.20;99.90;;;;;;6214302;23;20001;-86
2023/02/17 00:48:36;;;;;;;4.40;2.60;;;11.10;99.90;;;;;;6214158;23;20014;-87
2023/02/17 00:51:01;;;;;;;2.67;1.95;;;11.10;99.90;;;;;;6214029;23;20015;-87
2023/02/17 00:53:27;;;;;;;4.63;2.38;;;11.10;99.90;;;;;;6219509;23;20005;-86
2023/02/17 00:55:53;;;;;;;5.70;2.22;;;11.10;99.90;;;;;;6222351;23;20095;-87
2023/02/17 00:58:19;;;;;;;5.60;1.90;;;11.10;99.90;;;;;;6213986;23;20088;-86
2023/02/17 01:00:44;;;;;;;3.20;2.17;;;11.10;99.90;;;;;;6213674;23;20035;-86
2023/02/17 01:03:10;;;;;;;4.53;2.55;;;11.10;99.90;;;;;;6213567;23;20004;-87
2023/02/17 01:05:41;;;;;;;4.45;1.88;;;11.20;99.90;;;;;;6213616;23;20000;-88
2023/02/17 01:08:07;;;;;;;;;;;11.20;99.90;;;;;;6213406;23;20035;-87
2023/02/17 01:10:36;;;;;;;5.03;1.60;;;11.20;99.90;;;;;;6213647;23;19986;-86
2023/02/17 01:13:02;;;;;;;4.07;2.42;;;11.20;99.90;;;;;;6213156;23;20067;-86
2023/02/17 01:15:27;;;;;;;3.10;2.25;;;11.20;99.90;;;;;;6213477;23;19997;-86
2023/02/17 01:17:53;;;;;;;2.80;2.25;;;11.10;99.90;;;;;;6213326;23;20013;-86
2023/02/17 01:20:19;;;;;;;20.33;2.95;;;11.10;99.90;;;;;;6213376;23;20459;-86
2023/02/17 01:22:44;;;;;;;2.42;1.77;;;11.10;99.90;;;;;;6213533;23;20088;-86
2023/02/17 01:25:10;;;;;;;2.10;1.67;;;11.10;99.90;;;;;;6213160;23;20087;-86
2023/02/17 01:27:36;;;;;;;4.30;2.25;;;11.10;99.90;;;;;;6213187;23;20039;-86
2023/02/17 01:30:02;;;;;;;3.30;2.25;;;11.10;99.90;;;;;;6213251;23;20012;-86
2023/02/17 01:32:28;;;;;;;2.72;2.10;;;11.10;99.90;;;;;;6215255;23;20005;-88
2023/02/17 01:34:53;;;;;;;3.15;2.20;;;11.10;99.90;;;;;;6213301;23;20007;-88
2023/02/17 01:37:19;;;;;;;2.13;1.58;;;11.10;99.90;;;;;;6212939;23;20092;-86
2023/02/17 01:39:45;;;;;;;2.53;1.90;;;11.00;99.90;;;;;;6212951;23;20458;-86
2023/02/17 01:42:19;;;;;;;5.03;2.17;;;11.00;99.90;;;;;;6213417;23;20063;-87
2023/02/17 01:45:16;;;;;;;4.47;2.28;;;11.00;99.90;;;;;;6213288;23;20005;-87
2023/02/17 01:47:42;;;;;;;4.97;2.17;;;11.00;99.90;;;;;;6212679;23;20506;-88
2023/02/17 01:50:09;;;;;;;2.92;1.95;;;11.00;99.90;;;;;;6213027;23;20386;-87
2023/02/17 01:52:35;;;;;;;2.67;2.20;;;11.00;99.90;;;;;;6213179;23;20036;-87
2023/02/17 01:55:06;;;;;;;4.15;2.10;;;10.90;99.90;;;;;;6212921;23;20051;-87
2023/02/17 01:57:36;;;;;;;3.92;2.05;;;10.90;99.90;;;;;;6213073;23;20040;-87
2023/02/17 02:00:02;;;;;;;4.88;2.10;;;10.90;99.90;;;;;;6214747;23;20004;-88
2023/02/17 02:07:37;;;;;;;5.03;2.05;;;10.90;99.90;;;;;;6190902;23;20027;-88
2023/02/17 02:10:04;;;;;;;3.72;1.98;;;10.90;99.90;;;;;;6189940;23;20013;-86
2023/02/17 02:12:32;;;;;;;6.13;2.03;;;10.90;99.90;;;;;;6189879;23;20040;-86
2023/02/17 02:15:03;;;;;;;5.75;2.10;;;10.80;99.90;;;;;;6189818;23;20004;-85
2023/02/17 02:17:38;;;;;;;5.60;1.88;;;10.80;99.90;;;;;;6189752;23;20431;-86
2023/02/17 02:20:38;;;;;;;4.65;2.15;;;10.80;99.90;;;;;;6189760;23;20009;-87
2023/02/17 02:23:21;;;;;;;2.47;1.83;;;10.80;99.90;;;;;;6189939;23;19996;-88
2023/02/17 02:25:59;;;;;;;3.55;2.22;;;10.80;99.90;;;;;;6187989;23;20020;-87
2023/02/17 02:29:06;;;;;;;4.43;1.95;;;10.80;99.90;;;;;;6188664;23;20015;-85
2023/02/17 02:31:49;;;;;;;3.83;1.55;;;10.80;99.90;;;;;;6215108;23;20015;-87
2023/02/17 02:34:43;;;;;;;3.10;2.20;;;10.70;99.90;;;;;;6214985;23;20000;-87
2023/02/17 02:37:15;;;;;;;5.50;2.85;;;10.70;99.90;;;;;;6177597;23;20537;-87
2023/02/17 02:39:48;;;;;;;5.80;1.63;;;10.70;99.90;;;;;;6188947;23;20386;-87
2023/02/17 02:42:17;;;;;;;3.83;1.73;;;10.70;99.90;;;;;;6189050;23;20011;-87
2023/02/17 02:44:43;;;;;;;2.92;1.63;;;10.70;99.90;;;;;;6189379;23;20096;-87
2023/02/17 02:47:50;;;;;;;1.77;1.50;;;10.70;99.90;;;;;;6189633;23;20032;-87
2023/02/17 02:50:38;;;;;;;3.83;1.33;;;10.70;99.90;;;;;;6215933;23;20374;-87
2023/02/17 02:53:18;;;;;;;2.28;1.40;;;10.70;99.90;;;;;;6215200;23;20001;-87
2023/02/17 02:56:02;;;;;;;5.40;1.58;;;10.60;99.90;;;;;;6189732;23;20161;-86
2023/02/17 02:58:48;;;;;;;7.25;1.60;;;10.60;99.90;;;;;;6189426;23;20021;-87
2023/02/17 03:01:19;;;;;;;2.90;1.08;;;10.60;99.90;;;;;;6216033;23;20012;-87
2023/02/17 03:03:58;;;;;;;3.05;1.15;;;10.60;99.90;;;;;;6215745;23;20015;-88
2023/02/17 03:06:39;;;;;;;6.10;1.00;;;10.60;99.90;;;;;;6189179;23;20004;-86
2023/02/17 03:09:11;;;;;;;4.53;1.73;;;10.60;99.90;;;;;;6239007;23;20074;-87
2023/02/17 03:11:38;;;;;;;5.50;1.45;;;10.60;99.90;;;;;;6246225;23;20000;-87
2023/02/17 03:14:11;;;;;;;2.38;1.20;;;10.60;99.90;;;;;;6219169;23;20208;-87
2023/02/17 03:16:38;;;;;;;4.47;1.20;;;10.60;99.90;;;;;;6219436;23;20012;-87
2023/02/17 03:19:05;;;;;;;2.58;1.20;;;10.60;99.90;;;;;;6218960;23;20016;-86
2023/02/17 03:22:09;;;;;;;2.60;1.13;;;10.60;99.90;;;;;;6219231;23;20335;-86
2023/02/17 03:24:35;;;;;;;3.25;1.35;;;10.60;99.90;;;;;;6219270;23;20320;-87
2023/02/17 03:27:02;;;;;;;2.15;1.20;;;10.60;99.90;;;;;;6219231;23;20086;-84
2023/02/17 03:29:27;;;;;;;2.58;1.23;;;10.60;99.90;;;;;;6219062;23;20091;-86
2023/02/17 03:31:53;;;;;;;3.60;0.88;;;10.60;99.90;;;;;;6245934;23;20399;-88
2023/02/17 03:34:18;;;;;;;1.77;0.95;;;10.60;99.90;;;;;;6218898;23;20019;-86
2023/02/17 03:36:44;;;;;;;4.43;1.52;;;10.60;99.90;;;;;;6246172;23;20035;-87
2023/02/17 03:39:10;;;;;;;4.88;1.40;;;10.60;99.90;;;;;;6218681;23;20427;-86
2023/02/17 03:41:35;;;;;;;5.57;1.30;;;10.60;99.90;;;;;;6219088;23;20009;-87
2023/02/17 03:44:01;;;;;;;6.15;1.08;;;10.60;99.90;;;;;;6219259;23;20008;-86
2023/02/17 03:46:26;;;;;;;4.72;1.70;;;10.60;99.90;;;;;;6219547;23;20330;-87
2023/02/17 03:48:52;;;;;;;7.82;1.20;;;10.60;99.90;;;;;;6218994;23;20008;-87
2023/02/17 03:51:20;;;;;;;5.18;1.30;;;10.60;99.90;;;;;;6220143;23;20030;-86
2023/02/17 03:53:47;;;;;;;6.68;1.27;;;10.60;99.90;;;;;;6247803;23;20018;-86
2023/02/17 03:56:14;;;;;;;4.70;1.33;;;10.60;99.90;;;;;;6221038;23;20008;-87
2023/02/17 03:58:40;;;;;;;5.05;1.90;;;10.60;99.90;;;;;;6219137;23;20016;-86
2023/02/17 04:01:07;;;;;;;3.55;0.93;;;10.60;99.90;;;;;;6246025;23;19996;-86
2023/02/17 04:03:33;;;;;;;8.85;2.28;;;10.60;99.90;;;;;;6219270;23;20073;-87
2023/02/17 04:05:59;;;;;;;4.53;1.77;;;10.70;99.90;;;;;;6219181;23;20051;-87
2023/02/17 04:08:25;;;;;;;4.97;1.40;;;10.60;99.90;;;;;;6245670;23;20012;-87
2023/02/17 04:10:56;;;;;;;4.47;0.88;;;10.60;99.90;;;;;;6218888;23;20098;-87
2023/02/17 04:13:22;;;;;;;4.28;1.08;;;10.70;99.90;;;;;;6245577;23;20442;-87
2023/02/17 04:15:48;;;;;;;10.77;2.10;;;10.60;99.90;;;;;;6219040;23;20026;-87
2023/02/17 04:18:15;;;;;;;8.52;1.80;;;10.60;99.90;;;;;;6218587;23;20020;-87
2023/02/17 04:20:41;;;;;;;7.47;1.90;;;10.60;99.90;;;;;;6219036;23;20032;-87
2023/02/17 04:23:07;;;;;;;5.10;1.48;;;10.60;99.90;;;;;;6218655;23;20031;-87
2023/02/17 04:25:34;;;;;;;5.43;1.35;;;10.60;99.90;;;;;;6219027;23;20008;-87
2023/02/17 04:28:01;;;;;;;4.82;1.00;;;10.60;99.90;;;;;;6218504;23;20008;-87
2023/02/17 04:30:26;;;;;;;3.85;1.08;;;10.60;99.90;;;;;;6218995;23;20007;-87
2023/02/17 04:32:52;;;;;;;6.03;1.30;;;10.70;99.90;;;;;;6218897;23;20359;-87
2023/02/17 04:35:17;;;;;;;6.28;1.52;;;10.60;99.90;;;;;;6218880;23;20008;-87
2023/02/17 04:37:43;;;;;;;7.68;2.58;;;10.60;99.90;;;;;;6218628;23;20008;-87
2023/02/17 04:40:09;;;;;;;3.63;1.52;;;10.60;99.90;;;;;;6218711;23;20011;-87
2023/02/17 04:42:36;;;;;;;4.75;1.45;;;10.60;99.90;;;;;;6218902;23;20004;-87
2023/02/17 04:45:02;;;;;;;9.32;1.50;;;10.60;99.90;;;;;;6218888;23;20008;-86
2023/02/17 04:47:27;;;;;;;4.63;1.40;;;10.70;99.90;;;;;;6218479;23;20083;-87
2023/02/17 04:49:53;;;;;;;9.05;2.42;;;10.70;99.90;;;;;;6245930;23;20004;-87
2023/02/17 04:52:19;;;;;;;3.40;1.83;;;10.70;99.90;;;;;;6218813;23;20039;-87
2023/02/17 04:54:44;;;;;;;5.82;1.42;;;10.70;99.90;;;;;;6218685;23;20416;-87
2023/02/17 04:57:10;;;;;;;13.93;1.70;;;10.80;99.90;;;;;;6218423;23;20024;-87
2023/02/17 04:59:36;;;;;;;5.75;1.23;;;10.80;99.90;;;;;;6218626;23;20004;-87
2023/02/17 05:02:01;;;;;;;3.53;1.33;;;10.80;99.90;;;;;;6218573;23;20031;-87
2023/02/17 05:04:27;;;;;;;7.53;1.58;;;10.90;99.90;;;;;;6218535;23;20066;-87
2023/02/17 05:06:53;;;;;;;6.15;1.52;;;10.90;99.90;;;;;;6218810;23;20004;-86
2023/02/17 05:09:19;;;;;;;7.65;1.17;;;10.90;99.90;;;;;;6218384;23;20019;-87
2023/02/17 05:11:44;;;;;;;9.68;1.58;;;10.90;99.90;;;;;;6218527;23;20012;-87
2023/02/17 05:14:10;;;;;;;12.80;1.70;;;10.90;99.90;;;;;;6218701;23;20446;-87
2023/02/17 05:16:36;;;;;;;7.53;1.30;;;10.90;99.90;;;;;;6218385;23;20011;-87
2023/02/17 05:19:02;;;;;;;8.32;1.80;;;10.90;99.90;;;;;;6218401;23;20020;-87
2023/02/17 05:21:27;;;;;;;8.57;1.88;;;10.90;99.90;;;;;;6218541;23;20001;-87
2023/02/17 05:23:53;;;;;;;7.63;1.55;;;10.90;99.90;;;;;;6218331;23;20433;-87
2023/02/17 05:26:18;;;;;;;4.93;1.20;;;10.90;99.90;;;;;;6218546;23;20419;-88
2023/02/17 05:28:44;;;;;;;2.15;1.05;;;11.00;99.90;;;;;;6218549;23;20351;-88
2023/02/17 05:31:11;;;;;;;5.03;0.98;;;11.00;99.90;;;;;;6218511;23;20010;-88
2023/02/17 05:33:36;;;;;;;3.22;0.90;;;11.00;99.90;;;;;;6218733;23;20016;-88
2023/02/17 05:36:07;;;;;;;9.48;1.25;;;11.00;99.90;;;;;;6218773;23;20026;-88
2023/02/17 05:38:33;;;;;;;6.53;1.05;;;11.00;99.90;;;;;;6218586;23;20012;-87
2023/02/17 05:40:59;;;;;;;4.50;1.00;;;11.00;99.90;;;;;;6219750;23;20007;-88
2023/02/17 05:43:25;;;;;;;8.02;1.20;;;11.00;99.90;;;;;;6220770;23;20007;-88
2023/02/17 05:45:50;;;;;;;5.97;1.33;;;11.00;99.90;;;;;;6220547;23;20317;-87
2023/02/17 05:48:16;;;;;;;5.43;0.90;;;11.00;99.90;;;;;;6220383;23;20151;-87
2023/02/17 05:50:42;;;;;;;4.25;1.20;;;11.00;99.90;;;;;;6220651;23;20378;-87
2023/02/17 05:53:08;;;;;;;3.80;1.15;;;11.00;99.90;;;;;;6220476;23;20050;-87
2023/02/17 05:55:33;;;;;;;5.10;0.98;;;11.00;99.90;;;;;;6220703;23;20011;-88
2023/02/17 05:57:59;;;;;;;6.57;1.50;;;11.00;99.90;;;;;;6220391;23;20016;-88
2023/02/17 06:00:25;;;;;;;3.92;0.98;;;11.00;99.90;;;;;;6220374;23;20008;-87
2023/02/17 06:02:51;;;;;;;5.43;0.90;;;11.00;99.90;;;;;;6220491;23;20340;-86
2023/02/17 06:05:17;;;;;;;4.95;1.20;;;11.00;99.90;;;;;;6218768;23;20007;-87
2023/02/17 06:07:42;;;;;;;4.38;1.38;;;10.90;99.90;;;;;;6214595;23;20020;-87
2023/02/17 06:10:09;;;;;;;3.58;1.05;;;10.90;99.90;;;;;;6215849;23;20435;-88
2023/02/17 06:12:34;;;;;;;3.72;1.00;;;10.90;99.90;;;;;;6216726;23;20013;-89
2023/02/17 06:15:00;;;;;;;4.10;1.10;;;10.90;99.90;;;;;;6217118;23;20311;-89
2023/02/17 06:17:26;;;;;;;2.35;0.80;;;10.80;99.90;;;;;;6217896;23;20011;-90
2023/02/17 06:19:51;;;;;;;1.92;0.88;;;10.80;99.90;;;;;;6216043;23;20343;-89
2023/02/17 06:22:17;;;;;;;4.25;0.85;;;10.70;99.90;;;;;;6215984;23;20005;-90
2023/02/17 06:24:43;;;;;;;1.85;1.00;;;10.70;99.90;;;;;;6215794;23;20012;-89
2023/02/17 06:27:08;;;;;;;2.75;0.70;;;10.70;99.90;;;;;;6215697;23;20055;-88
2023/02/17 06:29:34;;;;;;;4.68;0.75;;;10.70;99.90;;;;;;6215198;23;20458;-88
2023/02/17 06:32:00;;;;;;;4.35;0.80;;;10.70;99.90;;;;;;6215403;23;20007;-89
2023/02/17 06:34:26;;;;;;;3.97;1.02;;;10.70;99.90;;;;;;6216656;23;20305;-89
2023/02/17 06:36:52;;;;;;;4.60;1.63;;;10.80;99.90;;;;;;6215650;23;20095;-89
2023/02/17 06:39:17;;;;;;;3.92;1.05;;;10.70;99.90;;;;;;6215075;23;20051;-88
2023/02/17 06:41:43;;;;;;;2.92;0.95;;;10.70;99.90;;;;;;6215077;23;20039;-89
2023/02/17 06:44:09;;;;;;;5.22;1.00;;;10.80;99.90;;;;;;6215389;23;20158;-88
2023/02/17 06:46:34;;;;;;;1.65;0.90;;;10.80;99.90;;;;;;6215203;23;20506;-89
2023/02/17 06:49:00;;;;;;;3.03;0.80;;;10.70;99.90;;;;;;6215351;23;20079;-89
2023/02/17 06:51:27;;;;;;;4.70;1.23;;;10.80;99.90;;;;;;6215047;23;20087;-89
2023/02/17 06:53:52;;;;;;;2.78;1.02;;;10.80;99.90;;;;;;6215277;23;20016;-89
2023/02/17 06:56:18;;;;;;;3.13;1.58;;;10.70;99.90;;;;;;6215125;23;20335;-89
2023/02/17 06:58:44;;;;;;;4.28;1.10;;;10.80;99.90;;;;;;6214800;23;20042;-88
2023/02/17 07:01:36;;;;;;;3.50;1.30;;;10.80;99.90;;;;;;6215075;23;20087;-88
2023/02/17 07:04:01;;;;;;;4.13;1.15;;;10.70;99.90;;;;;;6209560;23;20364;-89
2023/02/17 07:06:31;;;;;;;7.10;1.63;;;10.80;99.90;;;;;;6214975;23;20001;-88
2023/02/17 07:08:58;;;;;;;3.17;1.90;;;10.80;99.90;;;;;;6214782;23;20012;-89
2023/02/17 07:11:25;;;;;;;1.13;0.60;;;10.80;99.90;;;;;;6215023;23;20040;-88
2023/02/17 07:13:50;;;;;;;4.72;0.95;;;10.80;99.90;;;;;;6215187;23;20443;-89
2023/02/17 07:16:16;;;;;;;3.70;0.93;;;10.90;99.90;;;;;;6216021;23;20001;-89
2023/02/17 07:18:42;;;;;;;5.10;1.67;;;10.90;99.90;;;;;;6216938;23;20415;-89
2023/02/17 07:21:09;;;;;;;4.53;0.98;;;10.90;99.90;;;;;;6215782;23;20008;-89
2023/02/17 07:23:35;;;;;;;4.22;0.90;;;11.00;99.90;;;;;;6215297;23;20083;-88
2023/02/17 07:26:11;;;;;;;3.97;0.75;;;11.00;99.90;;;;;;6214787;23;20009;-89
2023/02/17 07:28:38;;;;;;;1.48;0.60;;;11.10;99.90;;;;;;6216877;23;20005;-89
2023/02/17 07:31:08;;;;;;;6.93;0.95;;;11.10;99.90;;;;;;6214988;23;20004;-90
2023/02/17 07:33:35;;;;;;;3.95;0.82;;;11.10;99.90;;;;;;6214374;23;20004;-90
2023/02/17 07:36:15;;;;;;;2.63;0.55;;;11.10;99.90;;;;;;6214469;23;20080;-90
2023/02/17 07:38:41;;;;;;;2.58;0.90;;;11.10;99.90;;;;;;6215349;23;20012;-90
2023/02/17 07:41:13;;;;;;;4.72;0.50;;;11.10;99.90;;;;;;6214160;23;20015;-90
2023/02/17 07:43:39;;;;;;;1.98;0.57;;;11.00;99.90;;;;;;6214932;23;20016;-89
2023/02/17 07:46:06;;;;;;;1.65;0.57;;;11.10;99.90;;;;;;6215225;23;20439;-89
2023/02/17 07:48:31;;;;;;;5.82;0.70;;;11.10;99.90;;;;;;6214247;23;20005;-89
2023/02/17 07:51:07;;;;;;;1.67;0.47;;;11.10;99.90;;;;;;6214947;23;20008;-90
2023/02/17 07:53:34;;;;;;;3.53;1.25;;;11.10;99.90;;;;;;6214872;23;20400;-88
2023/02/17 07:56:05;;;;;;;2.47;1.08;;;11.10;99.90;;;;;;6214562;23;20009;-89
2023/02/17 07:58:32;;;;;;;2.67;0.65;;;11.10;99.90;;;;;;6214650;23;20012;-89
2023/02/17 08:01:23;;;;;;;1.52;0.70;;;11.10;99.90;;;;;;6215893;23;20001;-88
2023/02/17 08:03:49;;;;;;;1.25;0.95;;;11.20;99.90;;;;;;6214167;23;20008;-87
2023/02/17 08:06:24;;;;;;;1.52;0.70;;;11.20;99.90;;;;;;6214064;23;20107;-88
2023/02/17 08:14:21;;;;;;;4.07;1.15;;;11.30;99.90;;;;;;6216130;23;20015;-88
2023/02/17 08:16:46;;;;;;;2.67;0.85;;;11.30;99.90;;;;;;6214508;23;20005;-88
2023/02/17 08:19:12;;;;;;;2.30;1.05;;;11.30;99.90;;;;;;6214342;23;20023;-88
2023/02/17 08:21:38;;;;;;;4.63;1.70;;;11.30;99.90;;;;;;6214622;23;20466;-88
2023/02/17 08:24:04;;;;;;;2.80;1.67;;;11.40;99.90;;;;;;6213805;23;20630;-88
2023/02/17 08:26:30;;;;;;;2.38;1.73;;;11.40;99.90;;;;;;6214256;23;20336;-88
2023/02/17 08:28:57;;;;;;;2.78;1.63;;;11.40;99.90;;;;;;6216202;23;20001;-91
2023/02/17 08:31:25;;;;;;;3.60;1.75;;;11.50;99.90;;;;;;6227724;23;20020;-96
2023/02/17 08:33:54;;;;;;;3.90;2.20;;;11.50;99.90;;;;;;6216357;23;20007;-94
2023/02/17 08:36:23;;;;;;;3.80;1.70;;;11.50;99.90;;;;;;6215286;23;20059;-93
2023/02/17 08:38:50;;;;;;;1.63;1.52;;;11.60;99.90;;;;;;6215527;23;20023;-94
2023/02/17 08:41:30;;;;;;;1.73;1.63;;;11.70;99.90;;;;;;6215664;23;20005;-94
2023/02/17 08:43:57;;;;;;;3.60;1.70;;;11.70;99.90;;;;;;6192461;23;20015;-94
2023/02/17 08:46:24;;;;;;;3.90;1.40;;;11.70;99.90;;;;;;6215596;23;20008;-94
2023/02/17 08:48:50;;;;;;;3.92;1.05;;;11.60;99.90;;;;;;6215778;23;20005;-93
2023/02/17 08:51:25;;;;;;;3.85;1.00;;;11.70;99.90;;;;;;6215725;23;19996;-95
2023/02/17 08:53:56;;;;;;;3.10;0.90;;;11.70;99.90;;;;;;6216068;23;20028;-94
2023/02/17 08:56:23;;;;;;;1.20;0.80;;;11.70;99.90;;;;;;6217669;23;20001;-92
2023/02/17 08:58:48;;;;;;;4.47;0.90;;;11.70;99.90;;;;;;6223563;23;20048;-93
2023/02/17 09:01:17;;;;;;;2.17;0.80;;;11.70;99.90;;;;;;6226436;23;20015;-93
2023/02/17 09:03:43;;;;;;;4.22;0.70;;;11.70;99.90;;;;;;6235446;23;20005;-92
2023/02/17 09:06:09;;;;;;;3.97;1.00;;;11.70;99.90;;;;;;6234125;23;20032;-91
2023/02/17 09:08:35;;;;;;;3.75;1.08;;;11.70;99.90;;;;;;6219011;23;20117;-93
2023/02/17 09:11:04;;;;;;;5.57;0.93;;;11.70;99.90;;;;;;6217555;23;20008;-96
2023/02/17 09:13:30;;;;;;;3.22;0.90;;;11.70;99.90;;;;;;6217000;23;20054;-94
2023/02/17 09:15:56;;;;;;;1.95;0.60;;;11.80;99.90;;;;;;6218641;23;20005;-95
2023/02/17 09:18:22;;;;;;;3.42;0.75;;;11.80;99.90;;;;;;6218210;23;20028;-93
2023/02/17 09:20:48;;;;;;;4.53;0.40;;;11.80;99.90;;;;;;6218213;23;20000;-94
2023/02/17 09:23:14;;;;;;;8.10;1.48;;;11.90;99.90;;;;;;6218855;23;20009;-96
2023/02/17 09:25:40;;;;;;;6.68;1.70;;;11.90;99.90;;;;;;6218960;23;20083;-94
2023/02/17 09:28:06;;;;;;;6.38;1.52;;;11.90;99.90;;;;;;6218993;23;20001;-94
2023/02/17 09:30:31;;;;;;;4.72;0.90;;;11.90;99.90;;;;;;6217891;23;20058;-95
2023/02/17 09:32:58;;;;;;;6.30;1.20;;;12.00;99.90;;;;;;6217682;23;20028;-95
2023/02/17 09:35:24;;;;;;;3.75;0.57;;;12.00;99.90;;;;;;6218026;23;20032;-93
2023/02/17 09:37:50;;;;;;;2.40;0.95;;;12.00;99.90;;;;;;6216929;23;20020;-95
2023/02/17 09:40:25;;;;;;;4.35;0.75;;;11.90;99.90;;;;;;6218428;23;20016;-93
2023/02/17 09:42:51;;;;;;;4.05;0.73;;;12.00;99.90;;;;;;6218636;23;19996;-92
2023/02/17 09:45:24;;;;;;;3.97;0.63;;;11.90;99.90;;;;;;6217818;23;20420;-96
2023/02/17 09:47:55;;;;;;;3.53;0.52;;;11.90;99.90;;;;;;6217116;23;20004;-95
2023/02/17 09:50:38;;;;;;;3.63;0.63;;;11.90;99.90;;;;;;6219755;23;20001;-95
2023/02/17 09:53:11;;;;;;;1.75;0.70;;;11.90;99.90;;;;;;6218701;23;20005;-95
2023/02/17 09:55:45;;;;;;;2.25;0.65;;;11.90;99.90;;;;;;6219378;23;20055;-94
2023/02/17 09:58:19;;;;;;;7.57;0.93;;;11.80;99.90;;;;;;6216397;23;20013;-94
2023/02/17 10:00:52;;;;;;;4.65;0.85;;;11.80;99.90;;;;;;6217078;23;20004;-93
2023/02/17 10:03:22;;;;;;;4.60;1.08;;;11.90;99.90;;;;;;6217098;23;20020;-96
2023/02/17 10:05:58;;;;;;;4.75;1.08;;;11.90;99.90;;;;;;6217678;23;20007;-93
2023/02/17 10:08:30;;;;;;;8.35;0.90;;;11.90;99.90;;;;;;6217615;23;20491;-95
2023/02/17 10:11:19;;;;;;;3.63;1.23;;;11.90;99.90;;;;;;6217360;23;20019;-95
2023/02/17 10:13:46;;;;;;;7.00;0.65;;;12.00;99.90;;;;;;6218143;23;20009;-94
2023/02/17 10:16:20;;;;;;;4.32;0.98;;;12.00;99.90;;;;;;6216475;23;20075;-93
2023/02/17 10:19:01;;;;;;;4.95;1.52;;;12.00;99.90;;;;;;6216598;23;20019;-95
2023/02/17 10:21:39;;;;;;;6.78;1.27;;;12.10;99.90;;;;;;6216514;23;20009;-93
2023/02/17 10:24:07;;;;;;;3.88;1.67;;;12.20;99.90;;;;;;6218222;23;20015;-94
2023/02/17 10:26:54;;;;;;;6.45;1.65;;;12.30;99.90;;;;;;6218635;23;20028;-96
2023/02/17 10:29:41;;;;;;;4.85;0.88;;;12.40;99.90;;;;;;6220620;23;20017;-96
2023/02/17 10:32:24;;;;;;;2.80;0.77;;;12.40;99.90;;;;;;6219243;23;20005;-96
2023/02/17 10:35:15;;;;;;;5.93;1.40;;;12.50;99.90;;;;;;6218260;23;20051;-95
2023/02/17 10:37:51;;;;;;;7.70;1.13;;;12.50;99.90;;;;;;6216550;23;20067;-94
2023/02/17 10:40:23;;;;;;;4.95;1.33;;;12.50;99.90;;;;;;6216835;23;20092;-95
2023/02/17 10:42:52;;;;;;;4.35;1.17;;;12.50;99.90;;;;;;6216714;23;20036;-95
2023/02/17 10:45:30;;;;;;;4.32;0.98;;;12.60;99.90;;;;;;6216074;23;20005;-95
2023/02/17 10:48:02;;;;;;;6.68;1.10;;;12.70;99.90;;;;;;6216342;23;20015;-95
2023/02/17 10:50:29;;;;;;;7.32;1.77;;;12.90;99.90;;;;;;6217434;23;20001;-95
2023/02/17 10:52:55;;;;;;;1.85;0.82;;;13.10;99.90;;;;;;6217320;23;20017;-95
2023/02/17 10:55:31;;;;;;;5.72;0.60;;;13.30;99.90;;;;;;6217405;23;20008;-94
2023/02/17 10:58:39;;;;;;;2.30;0.50;;;13.50;99.90;;;;;;6217314;23;20091;-94
2023/02/17 11:01:06;;;;;;;2.00;0.80;;;13.70;99.90;;;;;;6216323;23;20004;-93
2023/02/17 11:03:33;;;;;;;3.92;0.98;;;14.00;99.90;;;;;;6216258;23;20016;-94
2023/02/17 11:06:04;;;;;;;3.25;0.93;;;14.10;99.90;;;;;;6216708;23;20428;-95
2023/02/17 11:08:33;;;;;;;5.15;1.00;;;14.20;99.90;;;;;;6216184;23;20308;-94
2023/02/17 11:11:15;;;;;;;4.80;1.20;;;14.20;99.90;;;;;;6216775;23;20014;-94
2023/02/17 11:14:04;;;;;;;6.40;1.27;;;14.20;99.90;;;;;;6216736;23;20432;-93
2023/02/17 11:16:40;;;;;;;8.48;1.10;;;14.10;99.90;;;;;;6218211;23;20011;-95
2023/02/17 11:19:24;;;;;;;6.38;0.90;;;14.10;99.90;;;;;;6215772;23;20012;-93
2023/02/17 11:21:54;;;;;;;3.47;0.77;;;14.20;99.90;;;;;;6216326;23;20005;-96
2023/02/17 11:24:20;;;;;;;7.55;0.93;;;14.30;99.90;;;;;;6215998;23;20477;-94
2023/02/17 11:27:01;;;;;;;4.20;1.00;;;14.50;99.90;;;;;;6216765;23;20009;-94
2023/02/17 11:29:28;;;;;;;8.88;1.10;;;14.50;99.90;;;;;;6216337;23;20450;-95
2023/02/17 11:31:54;;;;;;;8.82;1.73;;;14.60;99.90;;;;;;6217862;23;20063;-96
2023/02/17 11:34:29;;;;;;;1.75;0.68;;;14.60;99.90;;;;;;6219356;23;20008;-96
2023/02/17 11:37:19;;;;;;;5.90;0.88;;;14.70;99.90;;;;;;6216603;23;20023;-96
2023/02/17 11:39:53;;;;;;;3.75;1.00;;;14.60;99.90;;;;;;6216456;23;20020;-95
2023/02/17 11:42:27;;;;;;;4.38;1.02;;;14.70;99.90;;;;;;6217361;23;20427;-95
2023/02/17 11:44:58;;;;;;;7.18;1.55;;;14.80;99.90;;;;;;6219329;23;20020;-94
2023/02/17 11:47:41;;;;;;;4.63;1.30;;;14.90;99.90;;;;;;6225009;23;20027;-94
2023/02/17 11:50:09;;;;;;;2.95;0.85;;;14.90;99.90;;;;;;6230592;23;20004;-96
2023/02/17 11:53:05;;;;;;;3.00;0.68;;;14.90;99.90;;;;;;6218299;23;20055;-94
2023/02/17 11:56:05;;;;;;;6.20;1.73;;;14.70;99.90;;;;;;6215240;23;20043;-94
2023/02/17 11:58:48;;;;;;;5.95;2.15;;;14.80;99.90;;;;;;6216485;23;20095;-95
2023/02/17 12:01:47;;;;;;;5.57;1.10;;;14.90;99.90;;;;;;6216789;23;20008;-93
2023/02/17 12:04:29;;;;;;;8.75;1.92;;;14.70;99.90;;;;;;6216135;23;20004;-94
2023/02/17 12:07:14;;;;;;;7.28;1.17;;;14.30;99.90;;;;;;6218365;23;20004;-95
2023/02/17 12:09:49;;;;;;;5.60;1.10;;;14.00;99.90;;;;;;6218848;23;20016;-96
2023/02/17 12:12:23;;;;;;;6.32;1.50;;;13.60;99.90;;;;;;6219118;23;20055;-95
2023/02/17 12:14:58;;;;;;;7.45;0.88;;;13.30;99.90;;;;;;6218026;23;20000;-95
2023/02/17 12:18:05;;;;;;;7.22;0.80;;;12.90;99.90;;;;;;6218906;23;20340;-95
2023/02/17 12:20:56;;;;;;;4.70;0.60;;;12.60;99.90;;;;;;6224694;23;20003;-94
2023/02/17 12:23:27;;;;;;;3.83;1.00;;;12.30;99.90;;;;;;6229968;23;20036;-94
2023/02/17 12:26:14;;;;;;;5.45;0.82;;;12.10;99.90;;;;;;6228720;23;20012;-96
2023/02/17 12:28:59;;;;;;;6.78;1.67;;;12.00;99.90;;;;;;6225619;23;19997;-95
2023/02/17 12:31:55;;;;;;;6.30;1.20;;;11.90;99.90;;;;;;6223760;23;20008;-95
2023/02/17 12:34:29;;;;;;;7.00;0.73;;;11.70;99.90;;;;;;6222177;23;20005;-95
2023/02/17 12:36:57;;;;;;;9.40;1.70;;;11.60;99.90;;;;;;6222281;23;20062;-95
2023/02/17 12:39:31;;;;;;;6.05;1.27;;;11.50;99.90;;;;;;6217577;23;20039;-95
2023/02/17 12:42:03;;;;;;;7.18;1.33;;;11.40;99.90;;;;;;6217159;23;20105;-96
2023/02/17 12:44:33;;;;;;;7.28;1.10;;;11.40;99.90;;;;;;6216934;23;20035;-96
2023/02/17 12:47:08;;;;;;;7.88;1.50;;;11.40;99.90;;;;;;6217522;23;19996;-94
2023/02/17 12:49:44;;;;;;;10.20;1.48;;;11.40;99.90;;;;;;6220148;23;20019;-94
2023/02/17 12:52:23;;;;;;;6.22;1.00;;;11.30;99.90;;;;;;6220716;23;20001;-95
2023/02/17 12:54:55;;;;;;;12.48;1.45;;;11.30;99.90;;;;;;6220534;23;20033;-95
2023/02/17 12:57:40;;;;;;;5.72;1.00;;;11.30;99.90;;;;;;6219022;23;20012;-94
2023/02/17 13:00:23;;;;;;;5.10;1.20;;;11.30;99.90;;;;;;6220431;23;20027;-94
2023/02/17 13:02:49;;;;;;;8.82;1.17;;;11.30;99.90;;;;;;6220426;23;20158;-95
2023/02/17 13:06:07;;;;;;;7.63;1.38;;;11.30;99.90;;;;;;6221344;23;20043;-95
2023/02/17 13:08:51;;;;;;;9.18;1.17;;;11.20;99.90;;;;;;6176948;23;20031;-96
2023/02/17 13:11:31;;;;;;;9.15;1.45;;;11.20;99.90;;;;;;6221144;23;20066;-96
2023/02/17 13:14:08;;;;;;;7.40;0.85;;;11.20;99.90;;;;;;6226993;23;20004;-95
2023/02/17 13:16:42;;;;;;;8.30;1.52;;;11.10;99.90;;;;;;6221817;23;20004;-96
2023/02/17 13:19:13;;;;;;;12.73;1.50;;;11.00;99.90;;;;;;6220316;23;20012;-95